sensor_id;sensor_type;location;lat;lon;timestamp;temperature;humidity
39021;DHT22;25188;51.958;5.842;2023-04-26T00:01:29;5.00;85.60
39021;DHT22;25188;51.958;5.842;2023-04-26T00:03:55;5.00;85.60
39021;DHT22;25188;51.958;5.842;2023-04-26T00:06:21;5.00;85.70
39021;DHT22;25188;51.958;5.842;2023-04-26T00:08:47;4.90;85.80
39021;DHT22;25188;51.958;5.842;2023-04-26T00:11:13;5.00;86.10
39021;DHT22;25188;51.958;5.842;2023-04-26T00:13:38;4.90;86.00
39021;DHT22;25188;51.958;5.842;2023-04-26T00:16:04;4.90;86.10
39021;DHT22;25188;51.958;5.842;2023-04-26T00:18:30;4.90;86.20
39021;DHT22;25188;51.958;5.842;2023-04-26T00:20:56;4.90;86.30
39021;DHT22;25188;51.958;5.842;2023-04-26T00:23:22;4.90;86.50
39021;DHT22;25188;51.958;5.842;2023-04-26T00:25:47;4.80;86.50
39021;DHT22;25188;51.958;5.842;2023-04-26T00:28:13;4.80;86.60
39021;DHT22;25188;51.958;5.842;2023-04-26T00:30:39;4.70;86.60
39021;DHT22;25188;51.958;5.842;2023-04-26T00:33:11;4.80;86.90
39021;DHT22;25188;51.958;5.842;2023-04-26T00:35:37;4.80;86.90
39021;DHT22;25188;51.958;5.842;2023-04-26T00:38:02;4.70;86.90
39021;DHT22;25188;51.958;5.842;2023-04-26T00:40:29;4.70;86.90
39021;DHT22;25188;51.958;5.842;2023-04-26T00:42:59;4.60;87.00
39021;DHT22;25188;51.958;5.842;2023-04-26T00:45:25;4.50;87.10
39021;DHT22;25188;51.958;5.842;2023-04-26T00:47:52;4.60;87.30
39021;DHT22;25188;51.958;5.842;2023-04-26T00:50:18;4.60;87.40
39021;DHT22;25188;51.958;5.842;2023-04-26T00:52:45;4.50;87.60
39021;DHT22;25188;51.958;5.842;2023-04-26T00:55:11;4.50;87.80
39021;DHT22;25188;51.958;5.842;2023-04-26T00:57:39;4.50;88.00
39021;DHT22;25188;51.958;5.842;2023-04-26T01:00:05;4.60;88.20
39021;DHT22;25188;51.958;5.842;2023-04-26T01:02:31;4.50;88.30
39021;DHT22;25188;51.958;5.842;2023-04-26T01:04:57;4.50;88.50
39021;DHT22;25188;51.958;5.842;2023-04-26T01:07:22;4.60;88.70
39021;DHT22;25188;51.958;5.842;2023-04-26T01:09:48;4.50;88.90
39021;DHT22;25188;51.958;5.842;2023-04-26T01:12:15;4.50;89.10
39021;DHT22;25188;51.958;5.842;2023-04-26T01:14:41;4.50;89.40
39021;DHT22;25188;51.958;5.842;2023-04-26T01:17:08;4.50;89.30
39021;DHT22;25188;51.958;5.842;2023-04-26T01:19:34;4.50;89.40
39021;DHT22;25188;51.958;5.842;2023-04-26T01:22:02;4.40;89.50
39021;DHT22;25188;51.958;5.842;2023-04-26T01:24:28;4.40;89.70
39021;DHT22;25188;51.958;5.842;2023-04-26T01:26:54;4.40;89.80
39021;DHT22;25188;51.958;5.842;2023-04-26T01:29:21;4.40;90.00
39021;DHT22;25188;51.958;5.842;2023-04-26T01:31:47;4.30;90.00
39021;DHT22;25188;51.958;5.842;2023-04-26T01:34:13;4.30;90.10
39021;DHT22;25188;51.958;5.842;2023-04-26T01:36:39;4.40;90.20
39021;DHT22;25188;51.958;5.842;2023-04-26T01:39:05;4.30;90.20
39021;DHT22;25188;51.958;5.842;2023-04-26T01:41:33;4.40;90.30
39021;DHT22;25188;51.958;5.842;2023-04-26T01:43:59;4.20;90.30
39021;DHT22;25188;51.958;5.842;2023-04-26T01:46:25;4.20;90.40
39021;DHT22;25188;51.958;5.842;2023-04-26T01:48:50;4.20;90.40
39021;DHT22;25188;51.958;5.842;2023-04-26T01:51:16;4.20;90.50
39021;DHT22;25188;51.958;5.842;2023-04-26T01:53:42;4.20;90.60
39021;DHT22;25188;51.958;5.842;2023-04-26T01:56:07;4.10;90.60
39021;DHT22;25188;51.958;5.842;2023-04-26T01:58:33;4.10;90.70
39021;DHT22;25188;51.958;5.842;2023-04-26T02:01:08;4.10;90.80
39021;DHT22;25188;51.958;5.842;2023-04-26T02:03:34;4.10;90.90
39021;DHT22;25188;51.958;5.842;2023-04-26T02:06:00;4.00;90.90
39021;DHT22;25188;51.958;5.842;2023-04-26T02:08:26;4.10;91.00
39021;DHT22;25188;51.958;5.842;2023-04-26T02:10:52;4.10;91.10
39021;DHT22;25188;51.958;5.842;2023-04-26T02:13:18;4.00;91.20
39021;DHT22;25188;51.958;5.842;2023-04-26T02:15:47;3.90;91.30
39021;DHT22;25188;51.958;5.842;2023-04-26T02:18:13;4.00;91.40
39021;DHT22;25188;51.958;5.842;2023-04-26T02:20:43;3.90;91.40
39021;DHT22;25188;51.958;5.842;2023-04-26T02:23:09;3.90;91.50
39021;DHT22;25188;51.958;5.842;2023-04-26T02:25:35;3.80;91.60
39021;DHT22;25188;51.958;5.842;2023-04-26T02:28:02;3.80;91.60
39021;DHT22;25188;51.958;5.842;2023-04-26T02:30:28;3.90;91.80
39021;DHT22;25188;51.958;5.842;2023-04-26T02:32:54;3.80;91.90
39021;DHT22;25188;51.958;5.842;2023-04-26T02:35:20;3.80;92.00
39021;DHT22;25188;51.958;5.842;2023-04-26T02:37:45;3.90;92.10
39021;DHT22;25188;51.958;5.842;2023-04-26T02:40:14;3.80;92.10
39021;DHT22;25188;51.958;5.842;2023-04-26T02:42:40;3.80;92.20
39021;DHT22;25188;51.958;5.842;2023-04-26T02:45:06;3.80;92.20
39021;DHT22;25188;51.958;5.842;2023-04-26T02:47:32;3.70;92.30
39021;DHT22;25188;51.958;5.842;2023-04-26T02:50:01;3.70;92.40
39021;DHT22;25188;51.958;5.842;2023-04-26T02:52:27;3.70;92.50
39021;DHT22;25188;51.958;5.842;2023-04-26T02:54:53;3.60;92.60
39021;DHT22;25188;51.958;5.842;2023-04-26T02:57:18;3.70;92.60
39021;DHT22;25188;51.958;5.842;2023-04-26T02:59:44;3.70;93.00
39021;DHT22;25188;51.958;5.842;2023-04-26T03:02:09;3.70;92.90
39021;DHT22;25188;51.958;5.842;2023-04-26T03:04:35;3.70;92.90
39021;DHT22;25188;51.958;5.842;2023-04-26T03:07:02;3.60;93.30
39021;DHT22;25188;51.958;5.842;2023-04-26T03:09:29;3.60;93.10
39021;DHT22;25188;51.958;5.842;2023-04-26T03:11:55;3.60;93.20
39021;DHT22;25188;51.958;5.842;2023-04-26T03:14:21;3.50;93.30
39021;DHT22;25188;51.958;5.842;2023-04-26T03:16:47;3.50;93.50
39021;DHT22;25188;51.958;5.842;2023-04-26T03:19:15;3.50;93.60
39021;DHT22;25188;51.958;5.842;2023-04-26T03:21:41;3.60;93.70
39021;DHT22;25188;51.958;5.842;2023-04-26T03:24:07;3.50;93.70
39021;DHT22;25188;51.958;5.842;2023-04-26T03:26:32;3.50;93.90
39021;DHT22;25188;51.958;5.842;2023-04-26T03:28:58;3.50;94.00
39021;DHT22;25188;51.958;5.842;2023-04-26T03:31:24;3.50;94.10
39021;DHT22;25188;51.958;5.842;2023-04-26T03:33:50;3.50;94.20
39021;DHT22;25188;51.958;5.842;2023-04-26T03:36:16;3.40;94.30
39021;DHT22;25188;51.958;5.842;2023-04-26T03:38:42;3.50;94.50
39021;DHT22;25188;51.958;5.842;2023-04-26T03:41:07;3.50;94.60
39021;DHT22;25188;51.958;5.842;2023-04-26T03:43:33;3.30;94.60
39021;DHT22;25188;51.958;5.842;2023-04-26T03:45:59;3.50;94.70
39021;DHT22;25188;51.958;5.842;2023-04-26T03:48:25;3.40;94.80
39021;DHT22;25188;51.958;5.842;2023-04-26T03:50:51;3.30;94.80
39021;DHT22;25188;51.958;5.842;2023-04-26T03:53:17;3.30;95.00
39021;DHT22;25188;51.958;5.842;2023-04-26T03:55:43;3.40;95.10
39021;DHT22;25188;51.958;5.842;2023-04-26T03:58:09;3.40;95.10
39021;DHT22;25188;51.958;5.842;2023-04-26T04:00:38;3.30;95.20
39021;DHT22;25188;51.958;5.842;2023-04-26T04:03:04;3.30;95.30
39021;DHT22;25188;51.958;5.842;2023-04-26T04:05:30;3.30;95.50
39021;DHT22;25188;51.958;5.842;2023-04-26T04:07:56;3.30;95.60
39021;DHT22;25188;51.958;5.842;2023-04-26T04:10:22;3.40;95.70
39021;DHT22;25188;51.958;5.842;2023-04-26T04:12:49;3.30;95.80
39021;DHT22;25188;51.958;5.842;2023-04-26T04:15:15;3.40;95.90
39021;DHT22;25188;51.958;5.842;2023-04-26T04:17:41;3.30;96.00
39021;DHT22;25188;51.958;5.842;2023-04-26T04:20:07;3.40;96.20
39021;DHT22;25188;51.958;5.842;2023-04-26T04:22:33;3.30;96.30
39021;DHT22;25188;51.958;5.842;2023-04-26T04:24:59;3.30;96.40
39021;DHT22;25188;51.958;5.842;2023-04-26T04:27:25;3.40;96.60
39021;DHT22;25188;51.958;5.842;2023-04-26T04:29:51;3.30;96.60
39021;DHT22;25188;51.958;5.842;2023-04-26T04:32:18;3.30;96.70
39021;DHT22;25188;51.958;5.842;2023-04-26T04:34:44;3.40;96.90
39021;DHT22;25188;51.958;5.842;2023-04-26T04:37:10;3.30;97.00
39021;DHT22;25188;51.958;5.842;2023-04-26T04:39:36;3.40;97.40
39021;DHT22;25188;51.958;5.842;2023-04-26T04:42:02;3.30;97.40
39021;DHT22;25188;51.958;5.842;2023-04-26T04:44:28;3.30;97.50
39021;DHT22;25188;51.958;5.842;2023-04-26T04:46:53;3.50;97.60
39021;DHT22;25188;51.958;5.842;2023-04-26T04:49:19;3.50;97.70
39021;DHT22;25188;51.958;5.842;2023-04-26T04:51:45;3.40;97.80
39021;DHT22;25188;51.958;5.842;2023-04-26T04:54:17;3.40;97.90
39021;DHT22;25188;51.958;5.842;2023-04-26T04:56:43;3.50;98.00
39021;DHT22;25188;51.958;5.842;2023-04-26T04:59:10;3.60;98.00
39021;DHT22;25188;51.958;5.842;2023-04-26T05:01:35;3.40;98.10
39021;DHT22;25188;51.958;5.842;2023-04-26T05:04:03;3.60;98.20
39021;DHT22;25188;51.958;5.842;2023-04-26T05:06:29;3.50;98.30
39021;DHT22;25188;51.958;5.842;2023-04-26T05:08:56;3.50;98.40
39021;DHT22;25188;51.958;5.842;2023-04-26T05:11:22;3.60;98.50
39021;DHT22;25188;51.958;5.842;2023-04-26T05:13:48;3.50;98.50
39021;DHT22;25188;51.958;5.842;2023-04-26T05:16:14;3.50;98.60
39021;DHT22;25188;51.958;5.842;2023-04-26T05:18:39;3.70;98.70
39021;DHT22;25188;51.958;5.842;2023-04-26T05:21:06;3.60;98.80
39021;DHT22;25188;51.958;5.842;2023-04-26T05:23:32;3.70;98.90
39021;DHT22;25188;51.958;5.842;2023-04-26T05:26:02;3.70;99.00
39021;DHT22;25188;51.958;5.842;2023-04-26T05:28:29;3.70;99.10
39021;DHT22;25188;51.958;5.842;2023-04-26T05:30:55;3.80;99.20
39021;DHT22;25188;51.958;5.842;2023-04-26T05:33:21;3.80;99.30
39021;DHT22;25188;51.958;5.842;2023-04-26T05:35:47;3.90;99.40
39021;DHT22;25188;51.958;5.842;2023-04-26T05:38:13;3.90;99.50
39021;DHT22;25188;51.958;5.842;2023-04-26T05:40:38;4.00;99.60
39021;DHT22;25188;51.958;5.842;2023-04-26T05:43:04;4.00;99.60
39021;DHT22;25188;51.958;5.842;2023-04-26T05:45:30;4.10;99.70
39021;DHT22;25188;51.958;5.842;2023-04-26T05:47:55;4.10;99.80
39021;DHT22;25188;51.958;5.842;2023-04-26T05:50:21;4.20;99.90
39021;DHT22;25188;51.958;5.842;2023-04-26T05:52:47;4.20;99.90
39021;DHT22;25188;51.958;5.842;2023-04-26T05:55:12;4.30;99.90
39021;DHT22;25188;51.958;5.842;2023-04-26T05:57:38;4.40;99.90
39021;DHT22;25188;51.958;5.842;2023-04-26T06:00:04;4.40;99.90
39021;DHT22;25188;51.958;5.842;2023-04-26T06:02:30;4.50;99.90
39021;DHT22;25188;51.958;5.842;2023-04-26T06:04:56;4.50;99.90
39021;DHT22;25188;51.958;5.842;2023-04-26T06:07:22;4.60;99.90
39021;DHT22;25188;51.958;5.842;2023-04-26T06:09:47;4.60;99.90
39021;DHT22;25188;51.958;5.842;2023-04-26T06:12:13;4.60;99.90
39021;DHT22;25188;51.958;5.842;2023-04-26T06:14:39;4.90;99.90
39021;DHT22;25188;51.958;5.842;2023-04-26T06:17:04;4.80;99.90
39021;DHT22;25188;51.958;5.842;2023-04-26T06:19:30;4.90;99.90
39021;DHT22;25188;51.958;5.842;2023-04-26T06:21:56;4.90;99.90
39021;DHT22;25188;51.958;5.842;2023-04-26T06:24:26;4.90;99.90
39021;DHT22;25188;51.958;5.842;2023-04-26T06:26:51;5.20;99.90
39021;DHT22;25188;51.958;5.842;2023-04-26T06:29:17;5.10;99.90
39021;DHT22;25188;51.958;5.842;2023-04-26T06:31:43;5.20;99.90
39021;DHT22;25188;51.958;5.842;2023-04-26T06:34:08;5.40;99.90
39021;DHT22;25188;51.958;5.842;2023-04-26T06:36:34;5.50;99.90
39021;DHT22;25188;51.958;5.842;2023-04-26T06:39:00;5.60;99.90
39021;DHT22;25188;51.958;5.842;2023-04-26T06:41:25;5.60;99.90
39021;DHT22;25188;51.958;5.842;2023-04-26T06:43:51;5.70;99.90
39021;DHT22;25188;51.958;5.842;2023-04-26T06:46:17;5.70;99.90
39021;DHT22;25188;51.958;5.842;2023-04-26T06:48:43;5.70;99.90
39021;DHT22;25188;51.958;5.842;2023-04-26T06:51:09;5.80;99.90
39021;DHT22;25188;51.958;5.842;2023-04-26T06:53:35;5.90;99.90
39021;DHT22;25188;51.958;5.842;2023-04-26T06:56:01;6.00;99.90
39021;DHT22;25188;51.958;5.842;2023-04-26T06:58:27;6.10;99.90
39021;DHT22;25188;51.958;5.842;2023-04-26T07:00:52;6.20;99.80
39021;DHT22;25188;51.958;5.842;2023-04-26T07:03:18;6.30;99.70
39021;DHT22;25188;51.958;5.842;2023-04-26T07:05:50;6.40;99.60
39021;DHT22;25188;51.958;5.842;2023-04-26T07:08:15;6.50;99.10
39021;DHT22;25188;51.958;5.842;2023-04-26T07:10:41;6.60;98.70
39021;DHT22;25188;51.958;5.842;2023-04-26T07:13:07;6.70;98.30
39021;DHT22;25188;51.958;5.842;2023-04-26T07:15:32;6.80;98.20
39021;DHT22;25188;51.958;5.842;2023-04-26T07:17:58;6.80;98.00
39021;DHT22;25188;51.958;5.842;2023-04-26T07:20:24;6.90;97.90
39021;DHT22;25188;51.958;5.842;2023-04-26T07:22:50;7.00;97.70
39021;DHT22;25188;51.958;5.842;2023-04-26T07:25:16;7.20;97.40
39021;DHT22;25188;51.958;5.842;2023-04-26T07:27:42;7.20;97.20
39021;DHT22;25188;51.958;5.842;2023-04-26T07:30:08;7.30;97.10
39021;DHT22;25188;51.958;5.842;2023-04-26T07:32:35;7.40;97.00
39021;DHT22;25188;51.958;5.842;2023-04-26T07:35:05;7.50;96.70
39021;DHT22;25188;51.958;5.842;2023-04-26T07:37:31;7.70;96.20
39021;DHT22;25188;51.958;5.842;2023-04-26T07:39:57;7.70;95.80
39021;DHT22;25188;51.958;5.842;2023-04-26T07:42:23;7.80;95.40
39021;DHT22;25188;51.958;5.842;2023-04-26T07:44:49;7.90;94.90
39021;DHT22;25188;51.958;5.842;2023-04-26T07:47:14;7.90;94.50
39021;DHT22;25188;51.958;5.842;2023-04-26T07:49:40;8.20;94.00
39021;DHT22;25188;51.958;5.842;2023-04-26T07:52:08;8.20;93.70
39021;DHT22;25188;51.958;5.842;2023-04-26T07:54:33;8.20;93.60
39021;DHT22;25188;51.958;5.842;2023-04-26T07:56:59;8.40;93.10
39021;DHT22;25188;51.958;5.842;2023-04-26T07:59:25;8.50;93.00
39021;DHT22;25188;51.958;5.842;2023-04-26T08:01:51;8.60;92.20
39021;DHT22;25188;51.958;5.842;2023-04-26T08:04:28;8.60;91.40
39021;DHT22;25188;51.958;5.842;2023-04-26T08:06:54;8.70;91.50
39021;DHT22;25188;51.958;5.842;2023-04-26T08:09:21;8.80;91.10
39021;DHT22;25188;51.958;5.842;2023-04-26T08:11:46;8.90;90.50
39021;DHT22;25188;51.958;5.842;2023-04-26T08:14:12;9.00;90.20
39021;DHT22;25188;51.958;5.842;2023-04-26T08:16:38;9.00;88.50
39021;DHT22;25188;51.958;5.842;2023-04-26T08:19:03;9.00;88.30
39021;DHT22;25188;51.958;5.842;2023-04-26T08:21:29;9.00;86.70
39021;DHT22;25188;51.958;5.842;2023-04-26T08:23:56;9.00;86.70
39021;DHT22;25188;51.958;5.842;2023-04-26T08:26:21;9.10;85.90
39021;DHT22;25188;51.958;5.842;2023-04-26T08:28:47;9.10;85.60
39021;DHT22;25188;51.958;5.842;2023-04-26T08:31:13;9.20;85.90
39021;DHT22;25188;51.958;5.842;2023-04-26T08:33:38;9.30;84.40
39021;DHT22;25188;51.958;5.842;2023-04-26T08:36:05;9.40;84.30
39021;DHT22;25188;51.958;5.842;2023-04-26T08:38:30;9.60;84.20
39021;DHT22;25188;51.958;5.842;2023-04-26T08:40:58;9.70;83.50
39021;DHT22;25188;51.958;5.842;2023-04-26T08:43:28;9.80;82.80
39021;DHT22;25188;51.958;5.842;2023-04-26T08:45:54;9.90;80.20
39021;DHT22;25188;51.958;5.842;2023-04-26T08:48:20;9.90;79.30
39021;DHT22;25188;51.958;5.842;2023-04-26T08:50:47;9.90;78.40
39021;DHT22;25188;51.958;5.842;2023-04-26T08:53:14;9.90;78.90
39021;DHT22;25188;51.958;5.842;2023-04-26T08:55:48;10.00;78.70
39021;DHT22;25188;51.958;5.842;2023-04-26T08:58:14;10.00;77.20
39021;DHT22;25188;51.958;5.842;2023-04-26T09:00:43;10.00;77.40
39021;DHT22;25188;51.958;5.842;2023-04-26T09:03:09;10.00;76.80
39021;DHT22;25188;51.958;5.842;2023-04-26T09:05:35;10.00;76.70
39021;DHT22;25188;51.958;5.842;2023-04-26T09:08:03;10.10;76.00
39021;DHT22;25188;51.958;5.842;2023-04-26T09:10:31;10.10;75.70
39021;DHT22;25188;51.958;5.842;2023-04-26T09:12:57;10.10;76.10
39021;DHT22;25188;51.958;5.842;2023-04-26T09:15:24;10.20;76.00
39021;DHT22;25188;51.958;5.842;2023-04-26T09:17:51;10.40;76.40
39021;DHT22;25188;51.958;5.842;2023-04-26T09:20:19;10.50;75.40
39021;DHT22;25188;51.958;5.842;2023-04-26T09:22:53;10.50;75.30
39021;DHT22;25188;51.958;5.842;2023-04-26T09:25:27;10.50;75.00
39021;DHT22;25188;51.958;5.842;2023-04-26T09:27:53;10.50;74.80
39021;DHT22;25188;51.958;5.842;2023-04-26T09:30:20;10.50;74.00
39021;DHT22;25188;51.958;5.842;2023-04-26T09:37:52;10.20;72.70
39021;DHT22;25188;51.958;5.842;2023-04-26T09:40:19;10.10;72.70
39021;DHT22;25188;51.958;5.842;2023-04-26T09:42:45;10.00;72.00
39021;DHT22;25188;51.958;5.842;2023-04-26T09:45:11;9.90;72.70
39021;DHT22;25188;51.958;5.842;2023-04-26T09:47:37;9.90;72.90
39021;DHT22;25188;51.958;5.842;2023-04-26T09:50:03;9.80;72.10
39021;DHT22;25188;51.958;5.842;2023-04-26T09:52:28;9.80;71.40
39021;DHT22;25188;51.958;5.842;2023-04-26T09:54:54;9.70;71.30
39021;DHT22;25188;51.958;5.842;2023-04-26T09:57:21;9.70;71.60
39021;DHT22;25188;51.958;5.842;2023-04-26T09:59:49;9.60;71.70
39021;DHT22;25188;51.958;5.842;2023-04-26T10:02:21;9.60;72.20
39021;DHT22;25188;51.958;5.842;2023-04-26T10:04:49;9.60;72.40
39021;DHT22;25188;51.958;5.842;2023-04-26T10:07:18;9.50;72.30
39021;DHT22;25188;51.958;5.842;2023-04-26T10:09:44;9.60;72.80
39021;DHT22;25188;51.958;5.842;2023-04-26T10:12:12;9.60;73.00
39021;DHT22;25188;51.958;5.842;2023-04-26T10:14:38;9.60;73.30
39021;DHT22;25188;51.958;5.842;2023-04-26T10:17:04;9.60;73.10
39021;DHT22;25188;51.958;5.842;2023-04-26T10:19:32;9.70;73.20
39021;DHT22;25188;51.958;5.842;2023-04-26T10:22:07;9.70;73.30
39021;DHT22;25188;51.958;5.842;2023-04-26T10:24:37;9.80;73.10
39021;DHT22;25188;51.958;5.842;2023-04-26T10:27:02;9.90;73.00
39021;DHT22;25188;51.958;5.842;2023-04-26T10:32:20;10.00;72.00
39021;DHT22;25188;51.958;5.842;2023-04-26T10:35:11;10.00;71.60
39021;DHT22;25188;51.958;5.842;2023-04-26T10:40:37;10.10;71.30
39021;DHT22;25188;51.958;5.842;2023-04-26T10:45:43;10.00;71.00
39021;DHT22;25188;51.958;5.842;2023-04-26T10:48:20;10.00;70.80
39021;DHT22;25188;51.958;5.842;2023-04-26T10:55:52;9.90;70.50
39021;DHT22;25188;51.958;5.842;2023-04-26T10:58:28;9.90;70.50
39021;DHT22;25188;51.958;5.842;2023-04-26T11:03:41;9.90;69.80
39021;DHT22;25188;51.958;5.842;2023-04-26T11:06:09;9.90;70.00
39021;DHT22;25188;51.958;5.842;2023-04-26T11:08:38;9.90;70.30
39021;DHT22;25188;51.958;5.842;2023-04-26T11:11:05;9.90;70.00
39021;DHT22;25188;51.958;5.842;2023-04-26T11:13:43;10.00;69.80
39021;DHT22;25188;51.958;5.842;2023-04-26T11:16:10;10.00;69.50
39021;DHT22;25188;51.958;5.842;2023-04-26T11:18:38;10.00;69.20
39021;DHT22;25188;51.958;5.842;2023-04-26T11:21:05;10.00;69.20
39021;DHT22;25188;51.958;5.842;2023-04-26T11:23:30;10.10;69.20
39021;DHT22;25188;51.958;5.842;2023-04-26T11:26:00;10.20;69.10
39021;DHT22;25188;51.958;5.842;2023-04-26T11:28:30;10.30;68.50
39021;DHT22;25188;51.958;5.842;2023-04-26T11:30:56;10.40;67.80
39021;DHT22;25188;51.958;5.842;2023-04-26T11:33:22;10.40;67.90
39021;DHT22;25188;51.958;5.842;2023-04-26T11:35:49;10.50;68.00
39021;DHT22;25188;51.958;5.842;2023-04-26T11:38:15;10.60;68.20
39021;DHT22;25188;51.958;5.842;2023-04-26T11:40:41;10.70;67.60
39021;DHT22;25188;51.958;5.842;2023-04-26T11:43:09;10.80;67.80
39021;DHT22;25188;51.958;5.842;2023-04-26T11:45:36;10.90;67.10
39021;DHT22;25188;51.958;5.842;2023-04-26T11:48:06;11.00;66.80
39021;DHT22;25188;51.958;5.842;2023-04-26T11:50:35;11.20;67.00
39021;DHT22;25188;51.958;5.842;2023-04-26T11:53:03;11.40;66.10
39021;DHT22;25188;51.958;5.842;2023-04-26T11:55:30;11.60;66.10
39021;DHT22;25188;51.958;5.842;2023-04-26T11:57:58;11.80;65.60
39021;DHT22;25188;51.958;5.842;2023-04-26T12:00:24;12.20;65.70
39021;DHT22;25188;51.958;5.842;2023-04-26T12:02:50;12.60;65.70
39021;DHT22;25188;51.958;5.842;2023-04-26T12:05:28;13.20;65.40
39021;DHT22;25188;51.958;5.842;2023-04-26T12:07:58;13.90;64.80
39021;DHT22;25188;51.958;5.842;2023-04-26T12:10:31;14.60;63.30
39021;DHT22;25188;51.958;5.842;2023-04-26T12:12:58;14.90;61.10
39021;DHT22;25188;51.958;5.842;2023-04-26T12:15:28;15.10;60.90
39021;DHT22;25188;51.958;5.842;2023-04-26T12:18:09;15.30;59.90
39021;DHT22;25188;51.958;5.842;2023-04-26T12:20:36;15.30;58.00
39021;DHT22;25188;51.958;5.842;2023-04-26T12:25:28;14.90;55.90
39021;DHT22;25188;51.958;5.842;2023-04-26T12:27:55;14.80;56.30
39021;DHT22;25188;51.958;5.842;2023-04-26T12:30:21;14.60;56.30
39021;DHT22;25188;51.958;5.842;2023-04-26T12:32:46;14.50;55.10
39021;DHT22;25188;51.958;5.842;2023-04-26T12:35:12;14.30;54.70
39021;DHT22;25188;51.958;5.842;2023-04-26T12:37:38;14.10;54.50
39021;DHT22;25188;51.958;5.842;2023-04-26T12:40:04;14.00;55.00
39021;DHT22;25188;51.958;5.842;2023-04-26T12:42:31;13.90;55.10
39021;DHT22;25188;51.958;5.842;2023-04-26T12:44:57;13.90;55.50
39021;DHT22;25188;51.958;5.842;2023-04-26T12:47:23;13.90;55.20
39021;DHT22;25188;51.958;5.842;2023-04-26T12:49:49;13.80;55.90
39021;DHT22;25188;51.958;5.842;2023-04-26T12:52:14;13.80;55.90
39021;DHT22;25188;51.958;5.842;2023-04-26T12:54:40;13.80;55.60
39021;DHT22;25188;51.958;5.842;2023-04-26T12:57:06;13.80;55.40
39021;DHT22;25188;51.958;5.842;2023-04-26T12:59:31;13.80;54.80
39021;DHT22;25188;51.958;5.842;2023-04-26T13:01:57;13.70;54.90
39021;DHT22;25188;51.958;5.842;2023-04-26T13:04:22;13.80;55.00
39021;DHT22;25188;51.958;5.842;2023-04-26T13:06:48;13.80;55.30
39021;DHT22;25188;51.958;5.842;2023-04-26T13:09:14;13.90;55.00
39021;DHT22;25188;51.958;5.842;2023-04-26T13:11:39;14.00;55.00
39021;DHT22;25188;51.958;5.842;2023-04-26T13:14:05;14.10;54.60
39021;DHT22;25188;51.958;5.842;2023-04-26T13:16:34;14.20;55.00
39021;DHT22;25188;51.958;5.842;2023-04-26T13:19:00;14.50;55.10
39021;DHT22;25188;51.958;5.842;2023-04-26T13:21:25;14.80;55.40
39021;DHT22;25188;51.958;5.842;2023-04-26T13:23:51;15.50;56.40
39021;DHT22;25188;51.958;5.842;2023-04-26T13:26:17;16.10;55.30
39021;DHT22;25188;51.958;5.842;2023-04-26T13:28:43;16.60;54.30
39021;DHT22;25188;51.958;5.842;2023-04-26T13:31:08;17.10;53.20
39021;DHT22;25188;51.958;5.842;2023-04-26T13:33:34;17.40;51.80
39021;DHT22;25188;51.958;5.842;2023-04-26T13:36:00;17.40;50.90
39021;DHT22;25188;51.958;5.842;2023-04-26T13:38:26;17.30;49.70
39021;DHT22;25188;51.958;5.842;2023-04-26T13:40:51;17.10;49.80
39021;DHT22;25188;51.958;5.842;2023-04-26T13:43:18;16.90;49.40
39021;DHT22;25188;51.958;5.842;2023-04-26T13:45:43;16.80;49.70
39021;DHT22;25188;51.958;5.842;2023-04-26T13:48:09;16.70;49.50
39021;DHT22;25188;51.958;5.842;2023-04-26T13:50:36;16.60;49.20
39021;DHT22;25188;51.958;5.842;2023-04-26T13:53:01;16.60;49.30
39021;DHT22;25188;51.958;5.842;2023-04-26T13:55:27;16.60;49.20
39021;DHT22;25188;51.958;5.842;2023-04-26T13:57:55;16.70;49.30
39021;DHT22;25188;51.958;5.842;2023-04-26T14:00:21;16.80;49.60
39021;DHT22;25188;51.958;5.842;2023-04-26T14:02:47;16.80;49.40
39021;DHT22;25188;51.958;5.842;2023-04-26T14:05:13;16.80;49.40
39021;DHT22;25188;51.958;5.842;2023-04-26T14:07:39;16.80;49.10
39021;DHT22;25188;51.958;5.842;2023-04-26T14:10:06;16.80;49.30
39021;DHT22;25188;51.958;5.842;2023-04-26T14:12:32;16.90;49.10
39021;DHT22;25188;51.958;5.842;2023-04-26T14:14:58;16.80;48.80
39021;DHT22;25188;51.958;5.842;2023-04-26T14:17:26;16.70;49.40
39021;DHT22;25188;51.958;5.842;2023-04-26T14:19:53;16.60;48.40
39021;DHT22;25188;51.958;5.842;2023-04-26T14:22:19;16.50;48.60
39021;DHT22;25188;51.958;5.842;2023-04-26T14:24:45;16.40;48.10
39021;DHT22;25188;51.958;5.842;2023-04-26T14:27:11;16.20;47.80
39021;DHT22;25188;51.958;5.842;2023-04-26T14:29:37;16.20;48.10
39021;DHT22;25188;51.958;5.842;2023-04-26T14:32:02;16.10;48.30
39021;DHT22;25188;51.958;5.842;2023-04-26T14:34:28;16.10;48.10
39021;DHT22;25188;51.958;5.842;2023-04-26T14:36:54;16.10;47.90
39021;DHT22;25188;51.958;5.842;2023-04-26T14:39:21;16.10;48.10
39021;DHT22;25188;51.958;5.842;2023-04-26T14:41:47;16.10;48.20
39021;DHT22;25188;51.958;5.842;2023-04-26T14:44:12;16.10;48.40
39021;DHT22;25188;51.958;5.842;2023-04-26T14:46:38;16.00;48.60
39021;DHT22;25188;51.958;5.842;2023-04-26T14:49:03;15.90;48.60
39021;DHT22;25188;51.958;5.842;2023-04-26T14:51:29;15.80;48.70
39021;DHT22;25188;51.958;5.842;2023-04-26T14:53:56;15.70;49.00
39021;DHT22;25188;51.958;5.842;2023-04-26T14:56:21;15.50;48.90
39021;DHT22;25188;51.958;5.842;2023-04-26T14:58:48;15.30;49.40
39021;DHT22;25188;51.958;5.842;2023-04-26T15:01:13;15.20;49.50
39021;DHT22;25188;51.958;5.842;2023-04-26T15:03:39;15.10;49.70
39021;DHT22;25188;51.958;5.842;2023-04-26T15:06:07;14.90;49.80
39021;DHT22;25188;51.958;5.842;2023-04-26T15:08:33;14.80;50.10
39021;DHT22;25188;51.958;5.842;2023-04-26T15:10:59;14.70;50.20
39021;DHT22;25188;51.958;5.842;2023-04-26T15:13:25;14.60;50.20
39021;DHT22;25188;51.958;5.842;2023-04-26T15:15:50;14.60;50.10
39021;DHT22;25188;51.958;5.842;2023-04-26T15:18:16;14.50;50.00
39021;DHT22;25188;51.958;5.842;2023-04-26T15:20:41;14.40;50.10
39021;DHT22;25188;51.958;5.842;2023-04-26T15:23:07;14.40;50.00
39021;DHT22;25188;51.958;5.842;2023-04-26T15:25:34;14.20;50.20
39021;DHT22;25188;51.958;5.842;2023-04-26T15:28:01;14.10;50.20
39021;DHT22;25188;51.958;5.842;2023-04-26T15:30:27;14.10;50.10
39021;DHT22;25188;51.958;5.842;2023-04-26T15:32:55;14.00;50.20
39021;DHT22;25188;51.958;5.842;2023-04-26T15:35:20;14.00;50.20
39021;DHT22;25188;51.958;5.842;2023-04-26T15:37:46;13.90;50.20
39021;DHT22;25188;51.958;5.842;2023-04-26T15:40:13;13.90;49.80
39021;DHT22;25188;51.958;5.842;2023-04-26T15:42:39;13.90;49.70
39021;DHT22;25188;51.958;5.842;2023-04-26T15:45:05;13.90;49.90
39021;DHT22;25188;51.958;5.842;2023-04-26T15:47:33;13.90;50.20
39021;DHT22;25188;51.958;5.842;2023-04-26T15:50:03;13.90;50.40
39021;DHT22;25188;51.958;5.842;2023-04-26T15:52:29;13.80;50.40
39021;DHT22;25188;51.958;5.842;2023-04-26T15:54:54;13.70;50.90
39021;DHT22;25188;51.958;5.842;2023-04-26T15:57:20;13.60;51.40
39021;DHT22;25188;51.958;5.842;2023-04-26T15:59:46;13.50;51.60